Tiempo atmosférico en la estación meteorológica de Azuaga, Badajoz (550 m.)



Fecha
DESCASC
Temp. máxima en grados centígrados (hora)
DESCASC
Temp. mínima en grados centígrados (hora)
DESCASC
Temp. media en grados centígrados
DESCASC
Racha de viento máxima en m/sg (hora)
DESCASC
Velocidad máxima media en intervalos de 10 minutos(hora)
DESCASC
Precipitaciones diarias en mm
DESCASC
Precipitaciones de 00:00 a 06:00 en mm
DESCASC
Precipitaciones de 06:00 a 12:00 en mm
DESCASC
Precipitaciones de 12:00 a 18:00 en mm
DESCASC
Precipitaciones de 18:00 a 24:00 en mm
DESCASC
06-12-2018 18.6 (15:10) 7.5 (08:20) 13.1 6.39 (12:50) 4.17 (13:00) 0 0 0 0 0
05-12-2018 21 (15:00) 9.3 (07:30) 15.2 5.56 (16:20) 3.33 (15:50) 0 0 0 0 0
04-12-2018 21.3 (15:40) 7.3 (07:20) 14.3 5 (12:10) 3.33 (12:10) 0 0 0 0 0
03-12-2018 17.9 (15:20) 4.1 (00:00) 11 4.44 (15:00) 2.5 (15:00) 0 0 0 0 0
02-12-2018 16.6 (15:40) 5.2 (00:00) 10.9 3.33 (00:30) 2.22 (00:30) 0 0 0 0 0
01-12-2018 14 (16:10) 3.4 (00:00) 8.7 4.72 (13:40) 2.78 (13:40) 0 0 0 0 0
30-11-2018 12.5 (15:10) 5.2 (00:00) 8.8 9.44 (12:40) 5.83 (05:30) 1.4 1.4 0 0 0
29-11-2018 17.3 (15:10) 4.1 (00:00) 10.7 7.5 (19:30) 4.72 (19:30) 0.4 0 0 0 0.4
28-11-2018 17.4 (16:10) 3.9 (00:00) 10.6 2.78 (11:30) 2.22 (21:10) 0 0 0 0 0
27-11-2018 14.3 (15:20) 4.3 (00:00) 9.3 4.17 (00:30) 2.78 (01:50) 0 0 0 0 0
26-11-2018 12.4 (00:00) 5.3 (23:59) 8.8 18.33 (00:50) 11.67 (04:20) 0 0 0 0 0
25-11-2018 16.1 (14:20) 10.7 (00:00) 13.4 16.11 (23:59) 11.39 (23:40) 6 1.8 0 0.2 4
24-11-2018 12.9 (14:20) 4 (00:00) 8.4 8.06 (23:40) 5 (23:40) 0 0 0 0 0
23-11-2018 13 (15:00) 5.6 (00:00) 9.3 6.94 (05:20) 4.72 (05:10) 0.2 0.2 0 0 0
22-11-2018 11.1 (13:40) 7.4 (00:00) 9.3 7.5 (18:30) 5.28 (18:30) 0.8 0 0 0.4 0.4
21-11-2018 14 (15:20) 7.5 (00:00) 10.8 8.33 (12:30) 5.56 (12:30) 0.8 0 0 0.8 0
20-11-2018 13.2 (15:30) 8.9 (00:00) 11 14.72 (12:50) 9.72 (12:50) 1 0.2 0.8 0 0
19-11-2018 12.5 (14:00) 8.2 (00:00) 10.3 6.39 (14:00) 3.89 (14:10) 2.8 0.8 0.2 1.8 0
18-11-2018 12.4 (01:40) 8.1 (00:00) 10.3 9.17 (13:40) 4.72 (13:30) 9.4 0 6.6 2.8 0
17-11-2018 17.3 (14:50) 7.9 (00:00) 12.6 8.33 (14:10) 5 (14:10) 0 0 0 0 0
16-11-2018 17.2 (14:10) 9.5 (00:00) 13.4 6.11 (12:40) 3.33 (13:10) 0 0 0 0 0
15-11-2018 18.8 (14:10) 8.6 (00:00) 13.7 4.17 (12:50) 2.22 (11:20) 0 0 0 0 0
14-11-2018 19.1 (15:30) 9.6 (00:00) 14.4 7.22 (15:50) 3.89 (16:20) 0 0 0 0 0
13-11-2018 17.7 (15:50) 8.9 (00:00) 13.3 4.72 (14:30) 3.06 (11:20) 0 0 0 0 0
12-11-2018 12.6 (16:30) 10.8 (00:00) 11.7 8.61 (12:20) 5.28 (12:20) 16.6 1.2 14.8 0.6 0
11-11-2018 16.7 (15:40) 12.1 (00:00) 14.4 8.89 (16:00) 5.56 (16:10) 0.6 0.2 0 0.4 0
10-11-2018 15.2 (14:30) 9.2 (00:00) 12.2 10.83 (14:00) 6.67 (15:00) 0 0 0 0 0
09-11-2018 13.4 (15:20) 5.2 (00:00) 9.3 9.17 (06:50) 6.11 (12:00) 0.2 0 0 0.2 0

Gráficas

Temp. máximas Temp. mínimas Temp. medias Precipitaciones Rachas de viento máximas Velocidades máximas media en intervalos de 10 minutos

Datos horarios

Fecha y hora oficial Temperatura (ºC) Velocidad del viento (km/h) Dirección del viento Racha (km/h) Dirección de racha Precipitación (mm) Presión (hPa) Tendencia (hPa) Humedad (%)
2018-12-08 23:00:00 5.7 6 Noroeste 12 Noroeste 0 -- -- 98
2018-12-08 22:00:00 6.6 9 Noroeste 14 Noroeste 0 -- -- 97
2018-12-08 21:00:00 6.9 6 Noroeste 14 Noroeste 0 -- -- 96
2018-12-08 20:00:00 7 8 Noroeste 14 Noroeste 0 -- -- 95
2018-12-08 19:00:00 7.9 6 Oeste 15 Noroeste 0 -- -- 93
2018-12-08 18:00:00 9.6 9 Noroeste 15 Noroeste 0 -- -- 89
2018-12-08 17:00:00 11.5 11 Norte 17 Norte 0 -- -- 84
2018-12-08 16:00:00 11.7 10 Noroeste 19 Noroeste 0 -- -- 87
2018-12-08 15:00:00 11 13 Noroeste 19 Noroeste 0 -- -- 91
2018-12-08 14:00:00 11.3 10 Norte 18 Noroeste 0 -- -- 95
2018-12-08 13:00:00 10.2 9 Norte 17 Nordeste 0 -- -- 99
2018-12-08 12:00:00 8.9 9 Norte 16 Nordeste 0 -- -- 99
2018-12-08 11:00:00 8.8 9 Norte 16 Noroeste 0 -- -- 99
2018-12-08 10:00:00 7.9 8 Noroeste 17 Noroeste 0 -- -- 99
2018-12-08 09:00:00 7 11 Noroeste 15 Noroeste 0 -- -- 99
2018-12-08 08:00:00 7.6 10 Noroeste 15 Noroeste 0 -- -- 99
2018-12-08 07:00:00 7.6 13 Noroeste 19 Noroeste 0 -- -- 99
2018-12-08 06:00:00 8.3 13 Noroeste 22 Noroeste 0 -- -- 99
2018-12-08 05:00:00 8.5 13 Noroeste 22 Noroeste 0 -- -- 99
2018-12-08 04:00:00 8.4 13 Noroeste 21 Noroeste 0 -- -- 99
2018-12-08 03:00:00 8.5 14 Noroeste 22 Noroeste 0 -- -- 99
2018-12-08 02:00:00 8.7 16 Noroeste 23 Noroeste 0 -- -- 99
2018-12-08 01:00:00 8.6 11 Noroeste 22 Noroeste 0 -- -- 98
2018-12-08 00:00:00 8.6 15 Noroeste 25 Noroeste 0 -- -- 98
2018-12-07 23:00:00 8.3 21 Noroeste 31 Noroeste 0 -- -- 97
2018-12-07 22:00:00 8.5 16 Noroeste 23 Oeste 0 -- -- 96
2018-12-07 21:00:00 8.5 11 Oeste 16 Noroeste 0 -- -- 88
2018-12-07 20:00:00 9.7 9 Noroeste 14 Noroeste 0 -- -- 82
2018-12-07 19:00:00 10.5 8 Noroeste 14 Noroeste 0 -- -- 79
2018-12-07 18:00:00 13.2 10 Noroeste 17 Noroeste 0 -- -- 68
2018-12-07 17:00:00 16.2 12 Noroeste 21 Noroeste 0 -- -- 61
2018-12-07 16:00:00 17.1 13 Noroeste 20 Noroeste 0 -- -- 56
2018-12-07 15:00:00 16.7 12 Noroeste 22 Noroeste 0 -- -- 56
2018-12-07 14:00:00 16 13 Noroeste 27 Noroeste 0 -- -- 60
2018-12-07 13:00:00 14.6 16 Noroeste 23 Noroeste 0 -- -- 68
2018-12-07 12:00:00 12.9 8 Noroeste 18 Noroeste 0 -- -- 73
2018-12-07 11:00:00 10.6 9 Noroeste 14 Noroeste 0 -- -- 94
2018-12-07 10:00:00 7.6 4 Oeste 9 Oeste 0 -- -- 99
2018-12-07 09:00:00 4.9 5 Oeste 11 Oeste 0 -- -- 99
2018-12-07 08:00:00 4.5 6 Noroeste 10 Noroeste 0 -- -- 98
2018-12-07 07:00:00 5.3 6 Noroeste 9 Oeste 0 -- -- 98
2018-12-07 06:00:00 5.6 6 Oeste 9 Oeste 0 -- -- 98
2018-12-07 05:00:00 6.2 6 Noroeste 10 Oeste 0 -- -- 98
2018-12-07 04:00:00 6.8 7 Noroeste 12 Oeste 0 -- -- 97
2018-12-07 03:00:00 7.6 7 Noroeste 13 Oeste 0 -- -- 97
2018-12-07 02:00:00 8.2 9 Oeste 15 Noroeste 0 -- -- 96
2018-12-07 01:00:00 8.6 10 Noroeste 16 Noroeste 0 -- -- 95
2018-12-07 00:00:00 8.5 9 Noroeste 14 Noroeste 0 -- -- 96
2018-12-06 23:00:00 8.6 7 Oeste 11 Oeste 0 -- -- 93
2018-12-06 22:00:00 9.5 7 Noroeste 14 Noroeste 0 -- -- 92
2018-12-06 21:00:00 9.7 8 Oeste 13 Oeste 0 -- -- 92
2018-12-06 20:00:00 10.3 7 Oeste 15 Noroeste 0 -- -- 88
2018-12-06 19:00:00 12.4 12 Noroeste 15 Noroeste 0 -- -- 80
2018-12-06 18:00:00 14.5 11 Noroeste 17 Noroeste 0 -- -- 75
2018-12-06 17:00:00 17.1 12 Noroeste 21 Noroeste 0 -- -- 65
2018-12-06 16:00:00 18.3 12 Norte 21 Noroeste 0 -- -- 61
2018-12-06 15:00:00 18.4 10 Noroeste 17 Noroeste 0 -- -- 58
2018-12-06 14:00:00 17 10 Noroeste 21 Noroeste 0 -- -- 63
2018-12-06 13:00:00 15.6 15 Noroeste 23 Noroeste 0 -- -- 68
2018-12-06 12:00:00 14.3 8 Noroeste 12 Noroeste 0 -- -- 77
2018-12-06 11:00:00 12.2 3 Noroeste 6 Oeste 0 -- -- 84
2018-12-06 10:00:00 9.8 4 Noroeste 9 Noroeste 0 -- -- 92
2018-12-06 09:00:00 8.7 4 Oeste 8 Noroeste 0 -- -- 97
2018-12-06 08:00:00 7.9 6 Noroeste 8 Noroeste 0 -- -- 93
2018-12-06 07:00:00 8.3 4 Oeste 10 Noroeste 0 -- -- 94
2018-12-06 06:00:00 8.5 6 Oeste 8 Noroeste 0 -- -- 95
2018-12-06 05:00:00 8.5 6 Oeste 9 Oeste 0 -- -- 97
2018-12-06 04:00:00 7.7 6 Noroeste 11 Noroeste 0 -- -- 95
2018-12-06 03:00:00 7.9 7 Noroeste 16 Noroeste 0 -- -- 94
2018-12-06 02:00:00 8.6 7 Noroeste 17 Noroeste 0 -- -- 89
2018-12-06 01:00:00 9.8 6 Oeste 10 Oeste 0 -- -- 86
2018-12-06 00:00:00 9.6 6 Oeste 11 Noroeste 0 -- -- 85
2018-12-05 23:00:00 11.1 0 Calma 8 Noroeste 0 -- -- 81
2018-12-05 22:00:00 10.6 4 Noroeste 9 Noroeste 0 -- -- 82
2018-12-05 21:00:00 11 5 Oeste 9 Noroeste 0 -- -- 81
2018-12-05 20:00:00 12.1 2 Oeste 8 Noroeste 0 -- -- 78
2018-12-05 19:00:00 13.9 4 Noroeste 12 Noroeste 0 -- -- 74
2018-12-05 18:00:00 16.4 7 Noroeste 12 Noroeste 0 -- -- 70
2018-12-05 17:00:00 19.4 9 Noroeste 20 Noroeste 0 -- -- 56
2018-12-05 16:00:00 20.6 9 Norte 17 Noroeste 0 -- -- 45
2018-12-05 15:00:00 21 8 Noroeste 12 Noroeste 0 -- -- 48
2018-12-05 14:00:00 20.6 2 Oeste 10 Noroeste 0 -- -- 45
2018-12-05 13:00:00 19 6 Noroeste 12 Noroeste 0 -- -- 58
2018-12-05 12:00:00 17.1 5 Noroeste 7 Oeste 0 -- -- 67
2018-12-05 11:00:00 15.8 0 Calma -- -- 0 -- -- 66
2018-12-05 10:00:00 11.8 0 Calma 4 Noroeste 0 -- -- 77
2018-12-05 09:00:00 9.5 3 Noroeste 10 Este 0 -- -- 80
2018-12-05 08:00:00 10 2 Norte 5 Norte 0 -- -- 86
2018-12-05 07:00:00 12.1 0 Calma -- -- 0 -- -- 79
2018-12-05 06:00:00 11.3 0 Calma 8 Oeste 0 -- -- 86
2018-12-05 05:00:00 10.4 0 Calma 5 Sudeste 0 -- -- 84
2018-12-05 04:00:00 12.4 2 Este 7 Sudeste 0 -- -- 71
2018-12-05 03:00:00 13 2 Sudeste 4 Sudeste 0 -- -- 69
2018-12-05 02:00:00 11.8 0 Calma 10 Sudeste 0 -- -- 78
2018-12-05 01:00:00 13.9 6 Sudeste 8 Sur 0 -- -- 64
2018-12-05 00:00:00 13.2 3 Este 6 Sur 0 -- -- 72
2018-12-04 23:00:00 14.1 6 Sur 10 Sudeste 0 -- -- 70
2018-12-04 22:00:00 15.8 8 Sudeste 12 Sudeste 0 -- -- 62
2018-12-04 21:00:00 15.9 9 Sudeste 11 Sudeste 0 -- -- 64
2018-12-04 20:00:00 16.2 8 Sudeste 11 Sudeste 0 -- -- 65
2018-12-04 19:00:00 16.6 5 Este 12 Sur 0 -- -- 55
2018-12-04 18:00:00 18.4 8 Sur 10 Sur 0 -- -- 54
2018-12-04 17:00:00 20.2 6 Sudeste 11 Sudeste 0 -- -- 52
2018-12-04 16:00:00 21.1 6 Este 11 Este 0 -- -- 49
2018-12-04 15:00:00 21 6 Este 12 Sudeste 0 -- -- 48
2018-12-04 14:00:00 20.1 7 Sudeste 13 Sudeste 0 -- -- 51
2018-12-04 13:00:00 18.6 7 Sudeste 18 Sudeste 0 -- -- 55
2018-12-04 12:00:00 16.9 12 Sudeste 17 Sudeste 0 -- -- 53
2018-12-04 11:00:00 15.3 4 Sudeste 7 Sudeste 0 -- -- 62
2018-12-04 10:00:00 12.2 4 Este 4 Este 0 -- -- 65
2018-12-04 09:00:00 9.2 4 Este 6 Este 0 -- -- 71
2018-12-04 08:00:00 8.4 0 Calma 5 Este 0 -- -- 72
2018-12-04 07:00:00 7.9 0 Calma -- -- 0 -- -- 73
2018-12-04 06:00:00 9.9 0 Calma 4 Nordeste 0 -- -- 61
2018-12-04 05:00:00 9 3 Este 6 Este 0 -- -- 65
2018-12-04 04:00:00 9 2 Este 4 Este 0 -- -- 67
2018-12-04 03:00:00 9.3 3 Este 7 Este 0 -- -- 71
2018-12-04 02:00:00 9.9 5 Este 6 Este 0 -- -- 68
2018-12-04 01:00:00 9 0 Calma -- -- 0 -- -- 77
2018-12-04 00:00:00 9.5 0 Calma 4 Sur 0 -- -- 80
2018-12-03 23:00:00 11 3 Sur 8 Este 0 -- -- 74
2018-12-03 22:00:00 9.7 0 Calma 4 Este 0 -- -- 90
2018-12-03 21:00:00 10.2 4 Este 5 Norte 0 -- -- 89
2018-12-03 20:00:00 9.8 4 Norte 9 Noroeste 0 -- -- 89
2018-12-03 19:00:00 11.4 4 Noroeste 9 Norte 0 -- -- 84
2018-12-03 18:00:00 13.7 5 Norte 10 Noroeste 0 -- -- 73
2018-12-03 17:00:00 16.7 6 Norte 10 Norte 0 -- -- 58
2018-12-03 16:00:00 17.5 6 Norte 16 Noroeste 0 -- -- 58
2018-12-03 15:00:00 17.5 9 Norte 16 Noroeste 0 -- -- 51
2018-12-03 14:00:00 16.2 7 Norte 11 Norte 0 -- -- 68
2018-12-03 13:00:00 15.2 4 Nordeste 8 Norte 0 -- -- 75
2018-12-03 12:00:00 13.3 0 Calma 0 Calma 0 -- -- 79
2018-12-03 11:00:00 9.9 0 Calma 3 Nordeste 0 -- -- 99
2018-12-03 10:00:00 7.2 2 Nordeste 7 Norte 0 -- -- 100
2018-12-03 09:00:00 4.1 2 Noroeste 7 Oeste 0 -- -- 99
2018-12-03 08:00:00 4.6 4 Oeste 8 Oeste 0 -- -- 99
2018-12-03 07:00:00 4.2 5 Noroeste 7 Noroeste 0 -- -- 98
2018-12-03 06:00:00 4.5 4 Oeste 5 Noroeste 0 -- -- 98
2018-12-03 05:00:00 5 3 Noroeste 8 Oeste 0 -- -- 98
2018-12-03 04:00:00 4.6 5 Oeste 7 Oeste 0 -- -- 97
2018-12-03 03:00:00 5.6 2 Noroeste 4 Norte 0 -- -- 97
2018-12-03 02:00:00 7.1 0 Calma 4 Noroeste 0 -- -- 96
2018-12-03 01:00:00 7.3 3 Noroeste 8 Sur 0 -- -- 95
2018-12-03 00:00:00 8 3 Oeste 4 Oeste 0 -- -- 96
2018-12-02 23:00:00 8.8 4 Sur 8 Sur 0 -- -- 96
2018-12-02 22:00:00 8.9 2 Sudoeste 6 Noroeste 0 -- -- 96
2018-12-02 21:00:00 8.7 4 Noroeste 8 Noroeste 0 -- -- 94
2018-12-02 20:00:00 9.9 5 Noroeste 8 Noroeste 0 -- -- 88
2018-12-02 19:00:00 11.2 4 Noroeste 10 Noroeste 0 -- -- 80
2018-12-02 18:00:00 13.8 7 Noroeste 12 Noroeste 0 -- -- 63
2018-12-02 17:00:00 16 6 Noroeste 10 Noroeste 0 -- -- 55
2018-12-02 16:00:00 16.4 4 Noroeste 8 Noroeste 0 -- -- 55
2018-12-02 15:00:00 15.1 3 Noroeste 6 Noroeste 0 -- -- 66
2018-12-02 14:00:00 14.2 0 Calma 6 Noroeste 0 -- -- 72
2018-12-02 13:00:00 13.5 4 Sudeste 7 Sudeste 0 -- -- 74
2018-12-02 12:00:00 12.1 0 Calma 6 Este 0 -- -- 79
2018-12-02 11:00:00 10.6 3 Este 6 Este 0 -- -- 86
2018-12-02 10:00:00 6.9 3 Oeste 5 Noroeste 0 -- -- 98
2018-12-02 09:00:00 5.5 0 Calma 4 Noroeste 0 -- -- 97
2018-12-02 08:00:00 5.5 4 Oeste 6 Oeste 0 -- -- 96
2018-12-02 07:00:00 6.3 4 Oeste 6 Sudoeste 0 -- -- 96
2018-12-02 06:00:00 5.6 4 Oeste 9 Oeste 0 -- -- 95
2018-12-02 05:00:00 5.8 7 Oeste 10 Oeste 0 -- -- 92
2018-12-02 04:00:00 6 7 Oeste 10 Oeste 0 -- -- 91
2018-12-02 03:00:00 6.2 8 Oeste 10 Oeste 0 -- -- 91
2018-12-02 02:00:00 6.5 4 Oeste 8 Oeste 0 -- -- 90
2018-12-02 01:00:00 7 5 Oeste 12 Oeste 0 -- -- 88
2018-12-02 00:00:00 7 5 Oeste 8 Noroeste 0 -- -- 88
2018-12-01 23:00:00 7.9 4 Noroeste 8 Noroeste 0 -- -- 85
2018-12-01 22:00:00 7.9 6 Oeste 10 Oeste 0 -- -- 86
2018-12-01 21:00:00 8.5 0 Calma 8 Noroeste 0 -- -- 84
2018-12-01 20:00:00 8.9 4 Noroeste 7 Oeste 0 -- -- 83
2018-12-01 19:00:00 10 4 Oeste 8 Noroeste 0 -- -- 77
2018-12-01 18:00:00 11.5 2 Oeste 13 Noroeste 0 -- -- 70
2018-12-01 17:00:00 13.2 7 Noroeste 13 Noroeste 0 -- -- 65
2018-12-01 16:00:00 13.8 5 Noroeste 13 Noroeste 0 -- -- 59
2018-12-01 15:00:00 13.4 9 Noroeste 16 Norte 0 -- -- 59
2018-12-01 14:00:00 12.8 4 Oeste 17 Noroeste 0 -- -- 58
2018-12-01 13:00:00 12.1 8 Noroeste 13 Noroeste 0 -- -- 61
2018-12-01 12:00:00 11.5 3 Noroeste 8 Noroeste 0 -- -- 65
2018-12-01 11:00:00 10.3 2 Noroeste 6 Sudeste 0 -- -- 75
2018-12-01 10:00:00 8 0 Calma 5 Oeste 0 -- -- 88
2018-12-01 09:00:00 4.3 4 Sudoeste 7 Oeste 0 -- -- 97
2018-12-01 08:00:00 3.9 3 Oeste 9 Oeste 0 -- -- 97
2018-12-01 07:00:00 3.4 4 Oeste 9 Sur 0 -- -- 94
2018-12-01 06:00:00 5 4 Sudeste 9 Sur 0 -- -- 94
2018-12-01 05:00:00 4.6 3 Oeste 8 Noroeste 0 -- -- 94
2018-12-01 04:00:00 4.7 5 Noroeste 10 Oeste 0 -- -- 94
2018-12-01 03:00:00 4.8 6 Oeste 9 Oeste 0 -- -- 93
2018-12-01 02:00:00 5.5 4 Oeste 6 Oeste 0 -- -- 91
2018-12-01 01:00:00 5.2 3 Oeste 12 Noroeste 0 -- -- 92
2018-12-01 00:00:00 5.2 8 Noroeste 13 Noroeste 0 -- -- 91
2018-11-30 23:00:00 5.6 5 Oeste 9 Noroeste 0 -- -- 88
2018-11-30 22:00:00 6 4 Oeste 10 Noroeste 0 -- -- 85
2018-11-30 21:00:00 6.3 6 Noroeste 9 Noroeste 0 -- -- 85
2018-11-30 20:00:00 7.1 5 Noroeste 7 Norte 0 -- -- 83
2018-11-30 19:00:00 8.1 5 Norte 12 Norte 0 -- -- 81
2018-11-30 18:00:00 10 8 Norte 21 Norte 0 -- -- 76
2018-11-30 17:00:00 11.5 14 Norte 30 Noroeste 0 -- -- 68
2018-11-30 16:00:00 12 19 Norte 30 Norte 0 -- -- 60
2018-11-30 15:00:00 12.3 18 Norte 31 Noroeste 0 -- -- 58
2018-11-30 14:00:00 12 21 Noroeste 34 Noroeste 0 -- -- 66
2018-11-30 13:00:00 10.9 17 Noroeste 34 Noroeste 0 -- -- 78
2018-11-30 12:00:00 10 17 Norte 30 Norte 0 -- -- 81
2018-11-30 11:00:00 8.6 14 Norte 27 Noroeste 0 -- -- 90
2018-11-30 10:00:00 7.5 15 Noroeste 30 Noroeste 0 -- -- 93
2018-11-30 09:00:00 7.8 15 Norte 33 Noroeste 0 -- -- 95
2018-11-30 08:00:00 8.1 12 Noroeste 27 Noroeste 0 -- -- 96
2018-11-30 07:00:00 9 17 Noroeste 23 Noroeste 0 -- -- 96
2018-11-30 06:00:00 9.6 14 Noroeste 31 Noroeste 0 -- -- 97
2018-11-30 05:00:00 10.5 12 Oeste 19 Oeste 0 -- -- 97
2018-11-30 04:00:00 10.5 6 Sudoeste 18 Sudoeste 0.2 -- -- 97
2018-11-30 03:00:00 10.5 11 Sudoeste 19 Sudoeste 0.6 -- -- 97
2018-11-30 02:00:00 10.5 11 Sudoeste 17 Sur 0.4 -- -- 96
2018-11-30 01:00:00 10.3 12 Sur 21 Sur 0.2 -- -- 94
2018-11-30 00:00:00 9.9 13 Sur 20 Sur 0.4 -- -- 94
2018-11-29 23:00:00 9.8 10 Sudeste 20 Sur 0 -- -- 89
2018-11-29 22:00:00 10 10 Sudeste 16 Sur 0 -- -- 87
2018-11-29 21:00:00 10.1 6 Sudoeste 16 Sudoeste 0 -- -- 87
2018-11-29 20:00:00 10.1 10 Sudoeste 27 Sudoeste 0 -- -- 88
2018-11-29 19:00:00 10.5 13 Sur 22 Sur 0 -- -- 85
2018-11-29 18:00:00 12.4 14 Sur 22 Sur 0 -- -- 71
2018-11-29 17:00:00 14.6 9 Sur 18 Sudoeste 0 -- -- 54
2018-11-29 16:00:00 16.8 12 Sur 18 Sur 0 -- -- 39
2018-11-29 15:00:00 17.2 8 Sudoeste 17 Sudoeste 0 -- -- 42
2018-11-29 14:00:00 15.7 5 Sudeste 13 Sudeste 0 -- -- 53
2018-11-29 13:00:00 13.8 8 Sudeste 17 Sudeste 0 -- -- 57
2018-11-29 12:00:00 11.9 11 Sudeste 20 Sur 0 -- -- 62
2018-11-29 11:00:00 10.2 12 Sudeste 20 Sudeste 0 -- -- 67
2018-11-29 10:00:00 8.6 11 Sudeste 19 Sudeste 0 -- -- 68
2018-11-29 09:00:00 5.6 7 Sudeste 13 Sudeste 0 -- -- 81
2018-11-29 08:00:00 7 12 Sudeste 17 Sudeste 0 -- -- 71
2018-11-29 07:00:00 6 9 Sudeste 12 Este 0 -- -- 82
2018-11-29 06:00:00 5.5 3 Sudeste 11 Sudeste 0 -- -- 73
2018-11-29 05:00:00 6.7 9 Sudeste 13 Sudeste 0 -- -- 70
2018-11-29 04:00:00 7.9 5 Sudeste 15 Sudeste 0 -- -- 78
2018-11-29 03:00:00 7 3 Sur 11 Sudeste 0 -- -- 83
2018-11-29 02:00:00 7.9 6 Sudeste 9 Sudeste 0 -- -- 79
2018-11-29 01:00:00 8.5 7 Sudeste 8 Sudeste 0 -- -- 78
2018-11-29 00:00:00 8.7 6 Sudeste 8 Sudeste 0 -- -- 77
2018-11-28 23:00:00 9.8 5 Sudeste 9 Sudeste 0 -- -- 71
2018-11-28 22:00:00 10.3 5 Este 10 Sudeste 0 -- -- 67
2018-11-28 21:00:00 9.6 5 Sudeste 9 Sudeste 0 -- -- 64
2018-11-28 14:00:00 15.5 6 Este 10 Este 0 -- -- 43
2018-11-28 13:00:00 14.6 6 Este 10 Este 0 -- -- 48
2018-11-28 12:00:00 12.4 7 Sudeste 10 Sudeste 0 -- -- 56
2018-11-28 11:00:00 10.2 6 Este 10 Este 0 -- -- 78
2018-11-28 10:00:00 8 0 Calma 6 Sudeste 0 -- -- 86
2018-11-28 09:00:00 5.4 3 Este 5 Este 0 -- -- 90
2018-11-28 08:00:00 4.4 4 Este 6 Este 0 -- -- 90
2018-11-28 07:00:00 4.8 4 Este 5 Este 0 -- -- 94
2018-11-28 06:00:00 4.3 0 Calma 3 Norte 0 -- -- 95
2018-11-28 05:00:00 4.1 2 Oeste 2 Noroeste 0 -- -- 93
2018-11-28 04:00:00 4.4 2 Este 5 Este 0 -- -- 91
2018-11-28 03:00:00 5 0 Calma 2 Nordeste 0 -- -- 94
2018-11-28 02:00:00 5.6 3 Este 4 Este 0 -- -- 89
2018-11-28 01:00:00 6.1 0 Calma 7 Sudeste 0 -- -- 88
2018-11-28 00:00:00 7.1 3 Este 7 Sudeste 0 -- -- 86
2018-11-27 23:00:00 7.9 4 Sudeste 7 Sudeste 0 -- -- 82
2018-11-27 22:00:00 8.1 3 Sur 5 Este 0 -- -- 82
2018-11-27 21:00:00 9.2 5 Este 7 Este 0 -- -- 78
2018-11-27 20:00:00 9.3 0 Calma -- -- 0 -- -- 76
2018-11-27 19:00:00 10.8 0 Calma -- -- 0 -- -- 67
2018-11-27 18:00:00 12.5 0 Calma 8 Nordeste 0 -- -- 62
2018-11-27 17:00:00 13.5 5 Nordeste 12 Nordeste 0 -- -- 57
2018-11-27 16:00:00 14.1 5 Nordeste 11 Norte 0 -- -- 59
2018-11-27 15:00:00 13.9 5 Este 10 Norte 0 -- -- 60
2018-11-27 14:00:00 13.3 4 Este 9 Norte 0 -- -- 65
2018-11-27 13:00:00 12.4 4 Este 12 Sudeste 0 -- -- 69
2018-11-27 12:00:00 10.6 6 Sudeste 14 Sudeste 0 -- -- 76
2018-11-27 11:00:00 8.5 4 Sudeste 7 Sudeste 0 -- -- 94
2018-11-27 10:00:00 6.8 3 Sudeste 6 Sudeste 0 -- -- 99
2018-11-27 09:00:00 4.5 2 Sur 5 Sur 0 -- -- 98
2018-11-27 08:00:00 4.7 4 Este 6 Este 0 -- -- 98
2018-11-27 07:00:00 4.7 0 Calma 6 Oeste 0 -- -- 98
2018-11-27 06:00:00 4.7 4 Oeste 7 Oeste 0 -- -- 98
2018-11-27 05:00:00 4.8 6 Oeste 10 Oeste 0 -- -- 97
2018-11-27 04:00:00 5 5 Oeste 10 Noroeste 0 -- -- 97
2018-11-27 03:00:00 5.3 4 Oeste 14 Oeste 0 -- -- 96
2018-11-27 02:00:00 5.4 10 Oeste 14 Oeste 0 -- -- 96
2018-11-27 01:00:00 5.4 9 Oeste 15 Noroeste 0 -- -- 95
2018-11-27 00:00:00 5.3 8 Oeste 18 Noroeste 0 -- -- 94
2018-11-26 23:00:00 5.7 8 Oeste 14 Oeste 0 -- -- 93
2018-11-26 22:00:00 6.4 11 Oeste 19 Oeste 0 -- -- 91
2018-11-26 21:00:00 7.2 12 Oeste 19 Oeste 0 -- -- 90
2018-11-26 20:00:00 7.7 10 Oeste 22 Oeste 0 -- -- 88
2018-11-26 19:00:00 8.4 13 Oeste 25 Oeste 0 -- -- 86
2018-11-26 18:00:00 9.3 13 Oeste 28 Noroeste 0 -- -- 83
2018-11-26 17:00:00 10.8 22 Noroeste 33 Noroeste 0 -- -- 76
2018-11-26 16:00:00 11.1 22 Noroeste 37 Noroeste 0 -- -- 74
2018-11-26 15:00:00 11.3 24 Noroeste 40 Noroeste 0 -- -- 72
2018-11-26 14:00:00 11.3 32 Noroeste 49 Noroeste 0 -- -- 73
2018-11-26 13:00:00 10.2 32 Noroeste 48 Noroeste 0 -- -- 77
2018-11-26 12:00:00 9.7 34 Noroeste 50 Noroeste 0 -- -- 79
2018-11-26 11:00:00 8.9 34 Noroeste 48 Noroeste 0 -- -- 86
2018-11-26 10:00:00 7.4 31 Noroeste 41 Noroeste 0 -- -- 90
2018-11-26 09:00:00 6.5 25 Noroeste 36 Noroeste 0 -- -- 92
2018-11-26 08:00:00 6.3 28 Noroeste 42 Noroeste 0 -- -- 91
2018-11-26 07:00:00 6.4 29 Noroeste 50 Noroeste 0 -- -- 91
2018-11-26 06:00:00 6.8 37 Noroeste 50 Noroeste 0 -- -- 89
2018-11-26 05:00:00 7.2 35 Noroeste 56 Noroeste 0 -- -- 86
2018-11-26 04:00:00 7.6 39 Noroeste 58 Noroeste 0 -- -- 83
2018-11-26 03:00:00 7.9 33 Noroeste 53 Noroeste 0 -- -- 84
2018-11-26 02:00:00 8.7 27 Oeste 52 Oeste 0 -- -- 84
2018-11-26 01:00:00 10.1 36 Oeste 66 Noroeste 0 -- -- 83
2018-11-26 00:00:00 12.4 41 Oeste 58 Oeste 0.2 -- -- 89
2018-11-25 23:00:00 12.2 20 Sudoeste 32 Sudoeste 0.6 -- -- 97
2018-11-25 22:00:00 11.9 18 Sudoeste 33 Sudoeste 0.2 -- -- 96
2018-11-25 21:00:00 11.5 20 Sudoeste 32 Sudoeste 1 -- -- 96
2018-11-25 20:00:00 10.8 16 Sudoeste 27 Sudoeste 1.4 -- -- 93
2018-11-25 19:00:00 11.8 19 Sudoeste 30 Sudoeste 0.6 -- -- 84
2018-11-25 18:00:00 13.4 18 Sudoeste 27 Sudoeste 0.2 -- -- 80
2018-11-25 17:00:00 14.2 19 Sudoeste 30 Oeste 0 -- -- 78
2018-11-25 16:00:00 14.8 17 Oeste 36 Oeste 0 -- -- 76
2018-11-25 15:00:00 15.4 25 Oeste 37 Sudoeste 0 -- -- 76
2018-11-25 14:00:00 15.3 19 Sudoeste 33 Sudoeste 0 -- -- 74
2018-11-25 13:00:00 15.1 23 Sudoeste 40 Sudoeste 0 -- -- 81
2018-11-25 12:00:00 14.3 21 Sudoeste 31 Sudoeste 0 -- -- 84
2018-11-25 11:00:00 12.9 15 Sudoeste 29 Sudoeste 0 -- -- 89
2018-11-25 10:00:00 12.3 14 Sudoeste 26 Sur 0 -- -- 91
2018-11-25 09:00:00 11.5 14 Sur 21 Sur 0 -- -- 94
2018-11-25 08:00:00 10.9 10 Sudoeste 18 Sudoeste 0 -- -- 96
2018-11-25 07:00:00 10.7 13 Sudoeste 19 Sudoeste 0 -- -- 94
2018-11-25 06:00:00 11.2 12 Sudoeste 18 Sudoeste 0 -- -- 94
2018-11-25 05:00:00 11.2 11 Sudoeste 21 Sudoeste 0 -- -- 96
2018-11-25 04:00:00 11.2 12 Sur 28 Sur 0 -- -- 97
2018-11-25 03:00:00 11.2 18 Sur 33 Sur 1.8 -- -- 96
2018-11-25 02:00:00 11.1 18 Sur 35 Sur 0 -- -- 95
2018-11-25 01:00:00 10.9 17 Sur 34 Sur 0 -- -- 95
2018-11-25 00:00:00 10.9 17 Sur 29 Sur 0 -- -- 93
2018-11-24 23:00:00 10.8 15 Sur 28 Sur 0 -- -- 91
2018-11-24 22:00:00 10.4 12 Sur 23 Sur 0 -- -- 92
2018-11-24 21:00:00 10.1 12 Sur 21 Sur 0 -- -- 91
2018-11-24 20:00:00 10.2 11 Sur 18 Sur 0 -- -- 88
2018-11-24 19:00:00 10.5 10 Sur 21 Sur 0 -- -- 84
2018-11-24 18:00:00 10.9 14 Sur 23 Sur 0 -- -- 80
2018-11-24 17:00:00 11.5 13 Sur 23 Sudoeste 0 -- -- 75
2018-11-24 16:00:00 11.8 15 Sudoeste 26 Sudoeste 0 -- -- 70
2018-11-24 15:00:00 12.3 13 Sudoeste 26 Sudoeste 0 -- -- 67
2018-11-24 14:00:00 12.6 15 Sudoeste 24 Sudoeste 0 -- -- 62
2018-11-24 13:00:00 11.5 16 Sudoeste 28 Sudoeste 0 -- -- 68
2018-11-24 12:00:00 10.3 6 Sudeste 12 Sudeste 0 -- -- 78
2018-11-24 11:00:00 8.5 7 Sudeste 11 Sur 0 -- -- 82
2018-11-24 10:00:00 7 5 Sudeste 7 Sudeste 0 -- -- 86
2018-11-24 09:00:00 6.3 3 Sudeste 8 Sudeste 0 -- -- 85
2018-11-24 08:00:00 4.2 0 Calma 6 Sudeste 0 -- -- 92
2018-11-24 07:00:00 4.9 6 Sudeste 8 Sudeste 0 -- -- 90
2018-11-24 06:00:00 4.9 0 Calma -- -- 0 -- -- 91
2018-11-24 05:00:00 4.6 0 Calma 8 Norte 0 -- -- 90
2018-11-24 04:00:00 4.8 0 Calma 2 Oeste 0 -- -- 89
2018-11-24 03:00:00 4.9 2 Oeste 8 Sur 0 -- -- 90
2018-11-24 02:00:00 5.5 0 Calma 9 Sur 0 -- -- 89
2018-11-24 01:00:00 6.6 4 Sur 7 Sudeste 0 -- -- 83
2018-11-24 00:00:00 6.3 0 Calma 5 Oeste 0 -- -- 86
2018-11-23 23:00:00 6.9 0 Calma 5 Sudoeste 0 -- -- 85
2018-11-23 22:00:00 7 2 Sur 5 Sur 0 -- -- 86
2018-11-23 21:00:00 7.4 4 Oeste 8 Oeste 0 -- -- 85
2018-11-23 20:00:00 7.8 6 Noroeste 9 Noroeste 0 -- -- 85
2018-11-23 19:00:00 8.7 5 Noroeste 11 Noroeste 0 -- -- 82
2018-11-23 18:00:00 10.6 8 Noroeste 20 Noroeste 0 -- -- 74
2018-11-23 17:00:00 12.5 13 Noroeste 21 Noroeste 0 -- -- 60
2018-11-23 16:00:00 12.7 12 Oeste 23 Noroeste 0 -- -- 60
2018-11-23 15:00:00 13 14 Oeste 22 Oeste 0 -- -- 64
2018-11-23 14:00:00 11.9 6 Oeste 17 Oeste 0 -- -- 70
2018-11-23 13:00:00 11.7 10 Oeste 19 Noroeste 0 -- -- 73
2018-11-23 12:00:00 10.8 10 Oeste 21 Oeste 0 -- -- 79
2018-11-23 11:00:00 9.5 8 Noroeste 18 Noroeste 0 -- -- 87
2018-11-23 10:00:00 8.6 10 Noroeste 15 Noroeste 0 -- -- 96
2018-11-23 09:00:00 7.1 4 Noroeste 13 Noroeste 0 -- -- 98
2018-11-23 08:00:00 7.5 7 Noroeste 15 Noroeste 0 -- -- 98
2018-11-23 07:00:00 7.8 6 Noroeste 14 Noroeste 0 -- -- 98
2018-11-23 06:00:00 7.9 7 Noroeste 25 Noroeste 0 -- -- 98
2018-11-23 05:00:00 8 13 Noroeste 20 Noroeste 0 -- -- 97
2018-11-23 04:00:00 8.2 7 Oeste 12 Oeste 0 -- -- 97
2018-11-23 03:00:00 8.3 3 Oeste 14 Noroeste 0 -- -- 97
2018-11-23 02:00:00 8.5 7 Noroeste 13 Noroeste 0 -- -- 97
2018-11-23 01:00:00 8.9 5 Sudeste 13 Sudeste 0.2 -- -- 97
2018-11-23 00:00:00 9 7 Sudeste 22 Sudeste 0.2 -- -- 97
2018-11-22 23:00:00 9.2 5 Sur 18 Sudeste 0.2 -- -- 98
2018-11-22 22:00:00 9.3 9 Sudeste 17 Sur 0 -- -- 97
2018-11-22 21:00:00 9.5 9 Sudeste 21 Sur 0 -- -- 96
2018-11-22 20:00:00 9.9 11 Sur 20 Sudeste 0 -- -- 95
2018-11-22 19:00:00 9.8 11 Sudeste 27 Sudeste 0 -- -- 97
2018-11-22 18:00:00 10 9 Sudeste 13 Sudeste 0 -- -- 96
2018-11-22 17:00:00 10.2 9 Sudeste 18 Sudeste 0 -- -- 96
2018-11-22 16:00:00 10.3 11 Sudeste 20 Sudeste 0 -- -- 94
2018-11-22 15:00:00 10.5 7 Sudeste 15 Sudeste 0.4 -- -- 94
2018-11-22 14:00:00 11.1 11 Sudeste 20 Sudeste 0 -- -- 91
2018-11-22 13:00:00 10.7 12 Sudeste 19 Sudeste 0 -- -- 92
2018-11-22 12:00:00 10.4 8 Sudeste 18 Sudeste 0 -- -- 98
2018-11-22 11:00:00 9.7 10 Sudeste 19 Sudeste 0 -- -- 99
2018-11-22 10:00:00 9.2 10 Sudeste 17 Sudeste 0 -- -- 99
2018-11-22 09:00:00 8.4 9 Sudeste 16 Sudeste 0 -- -- 99
2018-11-22 08:00:00 7.8 8 Sudeste 14 Sudeste 0 -- -- 98
2018-11-22 07:00:00 7.6 9 Sudeste 13 Sudeste 0 -- -- 98
2018-11-22 06:00:00 7.7 9 Sudeste 14 Sudeste 0 -- -- 97
2018-11-22 05:00:00 8 7 Sudeste 13 Sudeste 0 -- -- 96
2018-11-22 04:00:00 8.2 6 Sudeste 10 Sudeste 0 -- -- 95
2018-11-22 03:00:00 8.1 6 Sudeste 11 Sudeste 0 -- -- 94
2018-11-22 02:00:00 8.1 8 Sur 13 Sudeste 0 -- -- 94
2018-11-22 01:00:00 8.3 7 Sudeste 10 Sudeste 0 -- -- 92
2018-11-22 00:00:00 8.4 6 Sudeste 12 Sur 0 -- -- 91
2018-11-21 23:00:00 8.9 8 Sur 12 Sur 0 -- -- 89
2018-11-21 22:00:00 9.4 6 Sur 13 Sudoeste 0 -- -- 88
2018-11-21 21:00:00 9.3 9 Sudoeste 14 Sur 0 -- -- 89
2018-11-21 20:00:00 9.5 9 Sur 14 Sur 0 -- -- 88
2018-11-21 19:00:00 9.6 4 Oeste 16 Noroeste 0 -- -- 88
2018-11-21 18:00:00 10.8 12 Oeste 19 Oeste 0.8 -- -- 85
2018-11-21 17:00:00 13.2 13 Oeste 27 Sudoeste 0 -- -- 72
2018-11-21 16:00:00 12.8 9 Oeste 30 Sudoeste 0 -- -- 73
2018-11-21 15:00:00 13.9 18 Sudoeste 27 Sudoeste 0 -- -- 69
2018-11-21 14:00:00 12.9 14 Sudoeste 28 Sudoeste 0 -- -- 73
2018-11-21 13:00:00 12.4 13 Sudoeste 30 Sudoeste 0 -- -- 77
2018-11-21 12:00:00 11.1 14 Sur 24 Sur 0 -- -- 83
2018-11-21 11:00:00 10.9 12 Sur 20 Sur 0 -- -- 87
2018-11-21 10:00:00 9.1 8 Sur 14 Sur 0 -- -- 94
2018-11-21 09:00:00 7.8 10 Sur 14 Sur 0 -- -- 96
2018-11-21 08:00:00 7.6 10 Sur 17 Sudoeste 0 -- -- 95
2018-11-21 07:00:00 7.8 11 Sur 15 Sudoeste 0 -- -- 96
2018-11-21 06:00:00 8.1 11 Sudoeste 17 Sudoeste 0 -- -- 95
2018-11-21 05:00:00 8.3 13 Sudoeste 17 Sudoeste 0 -- -- 95
2018-11-21 04:00:00 8.4 11 Sudoeste 14 Sudoeste 0 -- -- 95
2018-11-21 03:00:00 8.6 10 Sudoeste 16 Sudoeste 0 -- -- 92
2018-11-21 02:00:00 9.2 10 Sudoeste 17 Sudoeste 0 -- -- 93
2018-11-21 01:00:00 9.1 12 Sudoeste 21 Sudoeste 0 -- -- 89
2018-11-21 00:00:00 9.3 13 Sudoeste 25 Sudoeste 0 -- -- 87
2018-11-20 23:00:00 8.9 16 Sudoeste 23 Sudoeste 0 -- -- 89
2018-11-20 22:00:00 9.3 17 Sudoeste 23 Sudoeste 0 -- -- 86
2018-11-20 21:00:00 9.6 12 Sudoeste 22 Sudoeste 0 -- -- 86
2018-11-20 20:00:00 10.2 12 Sudoeste 34 Oeste 0 -- -- 83
2018-11-20 19:00:00 10 19 Sudoeste 31 Oeste 0 -- -- 82
2018-11-20 18:00:00 10.7 21 Sudoeste 40 Sudoeste 0 -- -- 81
2018-11-20 17:00:00 11.6 22 Oeste 37 Sudoeste 0 -- -- 78
2018-11-20 16:00:00 12.4 24 Oeste 48 Oeste 0 -- -- 70
2018-11-20 15:00:00 12.8 31 Oeste 45 Oeste 0 -- -- 65
2018-11-20 14:00:00 12.1 33 Oeste 50 Oeste 0 -- -- 70
2018-11-20 13:00:00 11.8 27 Oeste 53 Oeste 0 -- -- 74
2018-11-20 12:00:00 11.2 29 Oeste 44 Oeste 0 -- -- 78
2018-11-20 11:00:00 10.7 20 Oeste 32 Noroeste 0.2 -- -- 93
2018-11-20 10:00:00 9.8 19 Noroeste 32 Noroeste 0.6 -- -- 97
2018-11-20 09:00:00 9.4 3 Sudoeste 6 Sur 0 -- -- 98
2018-11-20 08:00:00 9.2 5 Sur 9 Sur 0 -- -- 97
2018-11-20 07:00:00 9.2 0 Calma 10 Sudeste 0 -- -- 97
2018-11-20 06:00:00 9.4 4 Sudeste 9 Sudeste 0 -- -- 97
2018-11-20 05:00:00 9.4 6 Sudeste 9 Sur 0.2 -- -- 96
2018-11-20 04:00:00 9.7 3 Sudeste 8 Sur 0 -- -- 94
2018-11-20 03:00:00 9.4 5 Sur 12 Sudoeste 0 -- -- 94
2018-11-20 02:00:00 9.6 8 Sur 14 Sur 0 -- -- 94
2018-11-20 01:00:00 9.8 10 Sudoeste 14 Sudoeste 0 -- -- 95
2018-11-20 00:00:00 10.1 8 Sur 13 Sudoeste 0 -- -- 93
2018-11-19 23:00:00 10 6 Sur 9 Sudoeste 0 -- -- 92
2018-11-19 22:00:00 10 5 Sudoeste 10 Sudoeste 0 -- -- 90
2018-11-19 21:00:00 10.5 6 Oeste 18 Oeste 0 -- -- 90
2018-11-19 20:00:00 10.8 9 Oeste 14 Oeste 0 -- -- 90
2018-11-19 19:00:00 11.4 10 Oeste 15 Oeste 0 -- -- 90
2018-11-19 18:00:00 11.8 7 Noroeste 13 Noroeste 0 -- -- 90
2018-11-19 17:00:00 12.1 11 Noroeste 18 Noroeste 0 -- -- 86
2018-11-19 16:00:00 12.2 10 Noroeste 18 Noroeste 0 -- -- 84
2018-11-19 15:00:00 11.4 9 Noroeste 20 Noroeste 1.2 -- -- 83
2018-11-19 14:00:00 12.5 13 Noroeste 23 Noroeste 0.2 -- -- 87
2018-11-19 13:00:00 11.2 8 Norte 18 Norte 0.4 -- -- 92
2018-11-19 12:00:00 12 5 Noroeste 12 Noroeste 0 -- -- 85
2018-11-19 11:00:00 11.2 8 Noroeste 12 Noroeste 0 -- -- 89
2018-11-19 10:00:00 10.1 5 Norte 7 Nordeste 0 -- -- 97
2018-11-19 09:00:00 9.5 4 Norte 7 Norte 0 -- -- 98
2018-11-19 08:00:00 9.5 0 Calma 5 Nordeste 0.2 -- -- 98
2018-11-19 07:00:00 9.4 2 Nordeste 5 Este 0 -- -- 98
2018-11-19 06:00:00 9.4 3 Este 5 Este 0 -- -- 97
2018-11-19 05:00:00 9.4 4 Este 9 Este 0 -- -- 97
2018-11-19 04:00:00 9.5 3 Este 12 Sudeste 0.6 -- -- 96
2018-11-19 03:00:00 9.4 6 Sudeste 12 Sudeste 0.2 -- -- 96
2018-11-19 02:00:00 9.2 5 Este 11 Este 0 -- -- 96
2018-11-19 01:00:00 8.8 6 Este 9 Este 0 -- -- 98
2018-11-19 00:00:00 8.2 0 Calma 2 Nordeste 0 -- -- 98
2018-11-18 23:00:00 8.5 2 Este 10 Este 0 -- -- 98
2018-11-18 22:00:00 8.9 5 Sudeste 14 Sudeste 0 -- -- 98
2018-11-18 21:00:00 9.6 8 Sudeste 20 Sudeste 0 -- -- 97
2018-11-18 20:00:00 9.7 9 Sudeste 18 Sudeste 0 -- -- 97
2018-11-18 19:00:00 10.3 9 Sudeste 19 Sudeste 0 -- -- 96
2018-11-18 18:00:00 11.1 11 Sudeste 20 Sudeste 0 -- -- 93
2018-11-18 17:00:00 11.5 12 Sudeste 26 Sudeste 0 -- -- 92
2018-11-18 16:00:00 11.2 13 Sudeste 23 Sudeste 0.2 -- -- 95
2018-11-18 15:00:00 10.7 12 Sudeste 30 Sudeste 1.2 -- -- 95
2018-11-18 14:00:00 11.1 14 Sudeste 33 Este 0.4 -- -- 95
2018-11-18 13:00:00 10.8 10 Este 15 Este 1 -- -- 97
2018-11-18 12:00:00 10.6 10 Este 18 Sudeste 1.8 -- -- 97
2018-11-18 11:00:00 10.5 10 Sudeste 23 Sudeste 4.2 -- -- 95
2018-11-18 10:00:00 10.9 13 Sudeste 27 Sudeste 0.6 -- -- 93
2018-11-18 09:00:00 11.4 16 Sudeste 24 Sudeste 0 -- -- 88
2018-11-18 08:00:00 11.3 13 Sudeste 19 Sudeste 0 -- -- 88
2018-11-18 07:00:00 10.9 8 Sudeste 15 Este 0 -- -- 91
2018-11-18 06:00:00 10.6 6 Sudeste 13 Sudeste 0 -- -- 93
2018-11-18 05:00:00 10.8 7 Este 24 Sudeste 0 -- -- 93
2018-11-18 04:00:00 11.8 14 Sudeste 27 Sudeste 0 -- -- 89
2018-11-18 03:00:00 11.4 10 Sudeste 18 Sudeste 0 -- -- 91
2018-11-18 02:00:00 12.2 11 Sudeste 28 Sudeste 0 -- -- 87
2018-11-18 01:00:00 11.7 11 Este 22 Sudeste 0 -- -- 91
2018-11-18 00:00:00 11.9 9 Sudeste 16 Sudeste 0 -- -- 91
2018-11-17 23:00:00 12.1 8 Sudeste 20 Sudeste 0 -- -- 90
2018-11-17 22:00:00 12.5 11 Sudeste 20 Este 0 -- -- 88
2018-11-17 21:00:00 12.5 7 Sudeste 13 Sudeste 0 -- -- 88
2018-11-17 20:00:00 13.3 6 Sudeste 17 Sudeste 0 -- -- 84
2018-11-17 19:00:00 14.3 10 Sudeste 19 Sudeste 0 -- -- 79
2018-11-17 18:00:00 15 11 Sudeste 21 Sudeste 0 -- -- 75
2018-11-17 17:00:00 15.6 11 Sudeste 26 Sudeste 0 -- -- 71
2018-11-17 16:00:00 16.1 15 Sudeste 26 Sudeste 0 -- -- 68
2018-11-17 15:00:00 17 16 Sudeste 30 Sudeste 0 -- -- 65
2018-11-17 14:00:00 16.8 15 Sudeste 28 Sudeste 0 -- -- 67
2018-11-17 13:00:00 15.6 13 Sudeste 23 Sudeste 0 -- -- 72
2018-11-17 12:00:00 14.8 13 Sudeste 23 Sudeste 0 -- -- 76
2018-11-17 11:00:00 13.6 9 Sudeste 17 Sudeste 0 -- -- 83
2018-11-17 10:00:00 12.5 6 Sudeste 12 Sudeste 0 -- -- 86
2018-11-17 09:00:00 9.9 5 Sudeste 8 Sudeste 0 -- -- 98
2018-11-17 08:00:00 9.4 3 Sudeste 14 Este 0 -- -- 96
2018-11-17 07:00:00 9.9 6 Sudeste 13 Este 0 -- -- 96
2018-11-17 06:00:00 10.2 6 Sudeste 12 Este 0 -- -- 96
2018-11-17 05:00:00 10.1 5 Sudeste 12 Sudeste 0 -- -- 93
2018-11-17 04:00:00 11 8 Sudeste 13 Sudeste 0 -- -- 92
2018-11-17 03:00:00 11.6 8 Sudeste 14 Sudeste 0 -- -- 89
2018-11-17 02:00:00 11.2 6 Sudeste 12 Sudeste 0 -- -- 88
2018-11-17 01:00:00 11.4 6 Sudeste 11 Sur 0 -- -- 85
2018-11-17 00:00:00 12.1 7 Sur 11 Sudeste 0 -- -- 82
2018-11-16 23:00:00 12.5 6 Sudeste 11 Sudeste 0 -- -- 80
2018-11-16 22:00:00 12.6 5 Sudeste 8 Sudeste 0 -- -- 81
2018-11-16 21:00:00 12.8 5 Sudeste 8 Sudeste 0 -- -- 80
2018-11-16 20:00:00 13.3 6 Sur 9 Sur 0 -- -- 78
2018-11-16 19:00:00 14.1 7 Sur 12 Sur 0 -- -- 75
2018-11-16 18:00:00 15.5 6 Sur 16 Sur 0 -- -- 70
2018-11-16 17:00:00 16.5 8 Sudeste 17 Sudeste 0 -- -- 67
2018-11-16 16:00:00 17 8 Sudeste 18 Sur 0 -- -- 64
2018-11-16 15:00:00 16.6 11 Sudeste 22 Sudeste 0 -- -- 66
2018-11-16 14:00:00 17.1 12 Sudeste 21 Sudeste 0 -- -- 63
2018-11-16 13:00:00 16.6 12 Sudeste 22 Este 0 -- -- 66
2018-11-16 12:00:00 15.7 10 Sudeste 21 Este 0 -- -- 73
2018-11-16 11:00:00 14.3 9 Sudeste 13 Sudeste 0 -- -- 81
2018-11-16 10:00:00 13.2 6 Este 10 Este 0 -- -- 87
2018-11-16 09:00:00 10.8 3 Sudeste 9 Sudeste 0 -- -- 95
2018-11-16 08:00:00 10.2 6 Sudeste 9 Sudeste 0 -- -- 95
2018-11-16 07:00:00 10.3 5 Sudeste 11 Sur 0 -- -- 93
2018-11-16 06:00:00 10.7 8 Sudeste 12 Sudeste 0 -- -- 93
2018-11-16 05:00:00 10.4 5 Sudeste 14 Sudeste 0 -- -- 93
2018-11-16 04:00:00 9.8 3 Sudeste 8 Este 0 -- -- 93
2018-11-16 03:00:00 10 4 Este 7 Este 0 -- -- 92
2018-11-16 02:00:00 10.3 7 Sur 10 Sur 0 -- -- 91
2018-11-16 01:00:00 10.6 3 Sudeste 9 Sur 0 -- -- 90
2018-11-16 00:00:00 11.6 4 Sudeste 8 Sur 0 -- -- 88
2018-11-15 23:00:00 11.2 0 Calma -- -- 0 -- -- 89
2018-11-15 22:00:00 11.9 0 Calma -- -- 0 -- -- 88
2018-11-15 21:00:00 12.2 2 Este 5 Este 0 -- -- 85
2018-11-15 20:00:00 12.5 0 Calma 8 Sudoeste 0 -- -- 86
2018-11-15 19:00:00 13.6 5 Sur 9 Sudoeste 0 -- -- 84
2018-11-15 18:00:00 15.4 6 Sudoeste 8 Sudoeste 0 -- -- 78
2018-11-15 17:00:00 16.7 5 Este 11 Este 0 -- -- 68
2018-11-15 16:00:00 16.7 8 Este 13 Nordeste 0 -- -- 67
2018-11-15 15:00:00 17.1 8 Este 13 Nordeste 0 -- -- 66
2018-11-15 14:00:00 18.5 2 Este 10 Este 0 -- -- 62
2018-11-15 13:00:00 17.5 6 Este 15 Este 0 -- -- 65
2018-11-15 12:00:00 16.4 5 Nordeste 13 Este 0 -- -- 68
2018-11-15 11:00:00 14.9 8 Este 12 Este 0 -- -- 75
2018-11-15 10:00:00 12.6 2 Este 8 Este 0 -- -- 85
2018-11-15 09:00:00 10 5 Este 8 Este 0 -- -- 93
2018-11-15 08:00:00 9.4 6 Este 8 Este 0 -- -- 95
2018-11-15 07:00:00 9.4 0 Calma 4 Nordeste 0 -- -- 94
2018-11-15 06:00:00 10.1 3 Sudeste 8 Este 0 -- -- 92
2018-11-15 05:00:00 10.5 4 Este 8 Este 0 -- -- 91
2018-11-15 04:00:00 11 5 Este 9 Este 0 -- -- 91
2018-11-15 03:00:00 11.3 4 Nordeste 6 Este 0 -- -- 91
2018-11-15 02:00:00 12.6 3 Este 6 Sudeste 0 -- -- 86
2018-11-15 01:00:00 12.6 4 Sudeste 6 Sudeste 0 -- -- 86
2018-11-15 00:00:00 12.4 0 Calma 6 Este 0 -- -- 89
2018-11-14 23:00:00 12.9 6 Este 6 Este 0 -- -- 87
2018-11-14 22:00:00 12.6 3 Este 8 Este 0 -- -- 89
2018-11-14 21:00:00 13 6 Este 8 Este 0 -- -- 87
2018-11-14 20:00:00 13.4 2 Nordeste 10 Este 0 -- -- 86
2018-11-14 19:00:00 14.2 7 Este 23 Nordeste 0 -- -- 83
2018-11-14 18:00:00 15.3 10 Nordeste 19 Nordeste 0 -- -- 78
2018-11-14 17:00:00 16.5 10 Nordeste 24 Nordeste 0 -- -- 74
2018-11-14 16:00:00 18.1 13 Nordeste 26 Nordeste 0 -- -- 67
2018-11-14 15:00:00 18.8 11 Nordeste 19 Nordeste 0 -- -- 64
2018-11-14 14:00:00 18 5 Este 11 Nordeste 0 -- -- 65
2018-11-14 13:00:00 16.8 6 Sudeste 15 Sudeste 0 -- -- 69
2018-11-14 12:00:00 16.6 10 Sudeste 19 Este 0 -- -- 70
2018-11-14 11:00:00 15.2 10 Este 17 Nordeste 0 -- -- 77
2018-11-14 10:00:00 13.2 5 Este 14 Este 0 -- -- 84
2018-11-14 09:00:00 10.5 6 Este 10 Este 0 -- -- 91
2018-11-14 08:00:00 9.7 8 Este 11 Este 0 -- -- 93
2018-11-14 07:00:00 9.8 3 Nordeste 10 Nordeste 0 -- -- 93
2018-11-14 06:00:00 10.1 4 Nordeste 8 Este 0 -- -- 93
2018-11-14 05:00:00 10 4 Este 5 Nordeste 0 -- -- 94
2018-11-14 04:00:00 10.7 4 Este 10 Sudeste 0 -- -- 93
2018-11-14 03:00:00 11 7 Este 12 Este 0 -- -- 91
2018-11-14 02:00:00 10.9 4 Este 9 Este 0 -- -- 92
2018-11-14 01:00:00 11.5 6 Este 8 Este 0 -- -- 91
2018-11-14 00:00:00 10.7 3 Norte 6 Nordeste 0 -- -- 93
2018-11-13 23:00:00 11.8 3 Este 8 Este 0 -- -- 88
2018-11-13 22:00:00 12.1 5 Este 10 Nordeste 0 -- -- 89
2018-11-13 21:00:00 12.5 5 Este 10 Nordeste 0 -- -- 87
2018-11-13 20:00:00 13.3 4 Nordeste 15 Nordeste 0 -- -- 83
2018-11-13 19:00:00 14.3 4 Nordeste 10 Nordeste 0 -- -- 86
2018-11-13 18:00:00 16.1 6 Nordeste 15 Norte 0 -- -- 80
2018-11-13 17:00:00 17.2 8 Norte 15 Norte 0 -- -- 79
2018-11-13 16:00:00 17.6 9 Norte 15 Norte 0 -- -- 73
2018-11-13 15:00:00 16.8 9 Norte 17 Norte 0 -- -- 75
2018-11-13 14:00:00 15.8 9 Norte 15 Norte 0 -- -- 79
2018-11-13 13:00:00 14.5 6 Norte 15 Norte 0 -- -- 84
2018-11-13 12:00:00 13 7 Norte 14 Norte 0 -- -- 94
2018-11-13 11:00:00 11.4 7 Norte 10 Norte 0 -- -- 100
2018-11-13 10:00:00 10 4 Norte 8 Norte 0 -- -- 99
2018-11-13 09:00:00 9.1 3 Norte 5 Noroeste 0 -- -- 99
2018-11-13 08:00:00 9.3 3 Noroeste 10 Noroeste 0 -- -- 99
2018-11-13 07:00:00 9 6 Noroeste 10 Noroeste 0 -- -- 99
2018-11-13 06:00:00 9.4 6 Noroeste 10 Noroeste 0 -- -- 99
2018-11-13 05:00:00 9.8 5 Noroeste 9 Noroeste 0 -- -- 99
2018-11-13 04:00:00 10 3 Nordeste 6 Nordeste 0 -- -- 99
2018-11-13 03:00:00 10 2 Nordeste 5 Norte 0 -- -- 99
2018-11-13 02:00:00 10.3 3 Noroeste 9 Noroeste 0 -- -- 98
2018-11-13 01:00:00 10.6 5 Noroeste 11 Noroeste 0 -- -- 98
2018-11-13 00:00:00 10.9 4 Noroeste 8 Noroeste 0 -- -- 98
2018-11-12 23:00:00 10.8 0 Calma 9 Noroeste 0 -- -- 97
2018-11-12 22:00:00 11.1 5 Noroeste 14 Noroeste 0 -- -- 96
2018-11-12 21:00:00 11.4 8 Noroeste 12 Noroeste 0 -- -- 95
2018-11-12 20:00:00 11.8 5 Norte 9 Noroeste 0 -- -- 93
2018-11-12 19:00:00 11.9 0 Calma 5 Sudeste 0 -- -- 93
2018-11-12 18:00:00 12.1 0 Calma 10 Sudoeste 0 -- -- 91
2018-11-12 17:00:00 12.2 5 Oeste 13 Oeste 0 -- -- 89
2018-11-12 16:00:00 12.4 8 Sudoeste 15 Sudoeste 0.4 -- -- 93
2018-11-12 15:00:00 12.4 5 Sur 21 Sudeste 0 -- -- 94
2018-11-12 14:00:00 12.2 7 Sur 18 Sudoeste 0.2 -- -- 91
2018-11-12 13:00:00 12 11 Sur 31 Sudeste 0 -- -- 97
2018-11-12 12:00:00 11.5 17 Sudeste 28 Sudeste 2 -- -- 98
2018-11-12 11:00:00 11.3 14 Sudeste 22 Sudeste 2.4 -- -- 98
2018-11-12 10:00:00 11.4 9 Sudeste 17 Sur 1.8 -- -- 98
2018-11-12 09:00:00 11.5 8 Sudeste 15 Este 3.8 -- -- 98
2018-11-12 08:00:00 11.6 9 Sudeste 15 Sudeste 3.2 -- -- 98
2018-11-12 07:00:00 11.7 6 Sudeste 17 Sur 1.6 -- -- 98
2018-11-12 06:00:00 11.7 10 Sudeste 19 Sudeste 0 -- -- 98
2018-11-12 05:00:00 11.5 9 Este 20 Sudeste 0 -- -- 97
2018-11-12 04:00:00 11.4 12 Sudeste 26 Sudeste 0.2 -- -- 97
2018-11-12 03:00:00 11.3 13 Sudeste 21 Sudeste 0.2 -- -- 98
2018-11-12 02:00:00 11 8 Sudeste 14 Sudeste 0.2 -- -- 97
2018-11-12 01:00:00 10.8 4 Sudeste 19 Noroeste 0.6 -- -- 96
2018-11-12 00:00:00 12.2 7 Oeste 18 Sur 0 -- -- 90
2018-11-11 23:00:00 12.1 7 Sudeste 14 Sur 0 -- -- 86
2018-11-11 22:00:00 12.7 12 Sudoeste 26 Sudoeste 0 -- -- 84
2018-11-11 21:00:00 13.4 16 Sudoeste 24 Sudoeste 0 -- -- 86
2018-11-11 20:00:00 13.3 5 Sur 13 Sur 0 -- -- 91
2018-11-11 19:00:00 14.1 8 Sudeste 19 Sudeste 0 -- -- 88
2018-11-11 18:00:00 14.9 10 Sudeste 23 Sudeste 0 -- -- 82
2018-11-11 17:00:00 16 18 Sur 32 Sur 0 -- -- 77
2018-11-11 16:00:00 16 17 Sur 32 Sur 0 -- -- 78
2018-11-11 15:00:00 15 8 Sudeste 26 Sur 0.2 -- -- 95
2018-11-11 14:00:00 14.2 13 Sudeste 20 Sudeste 0.2 -- -- 94
2018-11-11 13:00:00 14.8 12 Sudeste 25 Sudeste 0 -- -- 87
2018-11-11 12:00:00 14.7 13 Sudeste 26 Sudeste 0 -- -- 88
2018-11-11 11:00:00 14.5 15 Sur 24 Sur 0 -- -- 90
2018-11-11 10:00:00 13.8 12 Sur 20 Sudeste 0 -- -- 93
2018-11-11 09:00:00 12.5 8 Sur 13 Sudeste 0 -- -- 98
2018-11-11 08:00:00 12.5 9 Sur 12 Sur 0 -- -- 98
2018-11-11 07:00:00 12.5 6 Sur 13 Sur 0 -- -- 98
2018-11-11 06:00:00 12.7 6 Sur 12 Sur 0 -- -- 98
2018-11-11 05:00:00 12.9 7 Sudoeste 16 Sur 0 -- -- 98
2018-11-11 04:00:00 13 3 Sur 10 Sur 0 -- -- 97
2018-11-11 03:00:00 12.9 5 Sur 10 Sur 0 -- -- 97
2018-11-11 02:00:00 12.9 6 Sur 18 Sudoeste 0 -- -- 97
2018-11-11 01:00:00 13.2 12 Sur 21 Sudoeste 0.2 -- -- 97
2018-11-11 00:00:00 13.1 10 Sudoeste 19 Sur 0 -- -- 96
2018-11-10 23:00:00 13.2 12 Sur 23 Sur 0 -- -- 95
2018-11-10 22:00:00 13.3 13 Sur 23 Sur 0 -- -- 93
2018-11-10 21:00:00 13.1 13 Sur 23 Sur 0 -- -- 93
2018-11-10 20:00:00 12.8 10 Sur 23 Sur 0 -- -- 94
2018-11-10 19:00:00 13 15 Sur 24 Sur 0 -- -- 92
2018-11-10 18:00:00 13.4 11 Sur 23 Sur 0 -- -- 87
2018-11-10 17:00:00 13.8 16 Sudoeste 30 Sudoeste 0 -- -- 85
2018-11-10 16:00:00 14.5 20 Sudoeste 35 Oeste 0 -- -- 81
2018-11-10 15:00:00 14.6 24 Sudoeste 33 Sudoeste 0 -- -- 77
2018-11-10 14:00:00 14.6 19 Sudoeste 39 Sudoeste 0 -- -- 79
2018-11-10 13:00:00 13.8 19 Sudoeste 29 Sudoeste 0 -- -- 79
2018-11-10 12:00:00 12.7 18 Sudoeste 30 Sudoeste 0 -- -- 81
2018-11-10 11:00:00 12.1 13 Sudoeste 23 Sudoeste 0 -- -- 85
2018-11-10 10:00:00 11.4 15 Sudoeste 23 Sudoeste 0 -- -- 88
2018-11-10 09:00:00 10.5 8 Sur 13 Sur 0 -- -- 90
2018-11-10 08:00:00 9.8 6 Sudeste 13 Sudeste 0 -- -- 89
2018-11-10 07:00:00 9.6 7 Sudeste 13 Sudeste 0 -- -- 89
2018-11-10 06:00:00 10 9 Sudeste 13 Sudeste 0 -- -- 87
2018-11-10 05:00:00 10 6 Sur 10 Sur 0 -- -- 87
2018-11-10 04:00:00 9.7 5 Sur 10 Sur 0 -- -- 86
2018-11-10 03:00:00 9.9 8 Sur 13 Sur 0 -- -- 85
2018-11-10 02:00:00 9.9 8 Sur 22 Sudoeste 0 -- -- 84
2018-11-10 01:00:00 9.2 9 Sur 13 Sur 0 -- -- 83
2018-11-10 00:00:00 9.5 10 Sur 14 Sudoeste 0 -- -- 82
2018-11-09 23:00:00 10.1 12 Sur 17 Sudoeste 0 -- -- 80
2018-11-09 22:00:00 10.4 14 Sudoeste 20 Sudoeste 0 -- -- 78
2018-11-09 21:00:00 10.1 12 Sudoeste 19 Oeste 0 -- -- 79
2018-11-09 20:00:00 10.6 13 Sudoeste 17 Sudoeste 0 -- -- 77
2018-11-09 19:00:00 10.5 12 Oeste 17 Oeste 0 -- -- 77
2018-11-09 18:00:00 11.8 11 Oeste 20 Noroeste 0 -- -- 71
2018-11-09 17:00:00 12.3 14 Oeste 25 Oeste 0 -- -- 69
2018-11-09 16:00:00 13.3 17 Oeste 29 Oeste 0 -- -- 62
2018-11-09 15:00:00 13.1 14 Noroeste 30 Oeste 0.2 -- -- 63
2018-11-09 14:00:00 12.5 14 Oeste 25 Noroeste 0 -- -- 62
2018-11-09 13:00:00 11.3 15 Noroeste 29 Noroeste 0 -- -- 71
2018-11-09 12:00:00 10.9 22 Noroeste 32 Noroeste 0 -- -- 75
2018-11-09 11:00:00 9.8 18 Noroeste 30 Noroeste 0 -- -- 86
2018-11-09 10:00:00 8 18 Noroeste 28 Noroeste 0 -- -- 93
2018-11-09 09:00:00 6 9 Oeste 24 Noroeste 0 -- -- 98
2018-11-09 08:00:00 5.3 17 Noroeste 30 Noroeste 0 -- -- 97
2018-11-09 07:00:00 5.6 21 Noroeste 33 Noroeste 0 -- -- 98
2018-11-09 06:00:00 5.6 21 Oeste 31 Oeste 0 -- -- 97
2018-11-09 05:00:00 6 15 Oeste 29 Oeste 0 -- -- 96
2018-11-09 04:00:00 6.4 16 Oeste 31 Oeste 0 -- -- 95
2018-11-09 03:00:00 6 14 Oeste 22 Oeste 0 -- -- 95
2018-11-09 02:00:00 6.6 14 Oeste 22 Oeste 0 -- -- 95
2018-11-09 01:00:00 6.5 14 Oeste 27 Noroeste 0 -- -- 95
2018-11-09 00:00:00 7.2 13 Noroeste 24 Noroeste 0 -- -- 94